createdAt,value
2023-05-19T00:00:05.435Z,96523.50
2023-05-19T00:01:09.444Z,96520.88
2023-05-19T00:02:15.931Z,96520.69
2023-05-19T00:03:22.070Z,96514.50
2023-05-19T00:04:27.725Z,96516.19
2023-05-19T00:05:30.962Z,96518.00
2023-05-19T00:06:36.753Z,96520.69
2023-05-19T00:07:39.581Z,96519.84
2023-05-19T00:08:44.906Z,96525.03
2023-05-19T00:09:51.125Z,96516.34
2023-05-19T00:10:56.975Z,96516.03
2023-05-19T00:12:02.500Z,96520.31
2023-05-19T00:13:04.915Z,96516.81
2023-05-19T00:14:12.366Z,96520.59
2023-05-19T00:15:15.776Z,96513.66
2023-05-19T00:16:21.467Z,96518.84
2023-05-19T00:17:24.488Z,96517.03
2023-05-19T00:18:30.120Z,96523.06
2023-05-19T00:19:32.682Z,96523.06
2023-05-19T00:20:37.932Z,96523.69
2023-05-19T00:21:40.617Z,96526.28
2023-05-19T00:22:46.129Z,96530.34
2023-05-19T00:23:48.417Z,96522.00
2023-05-19T00:24:56.779Z,96522.84
2023-05-19T00:25:58.988Z,96529.03
2023-05-19T00:27:03.855Z,96533.28
2023-05-19T00:28:06.109Z,96528.72
2023-05-19T00:29:10.996Z,96524.47
2023-05-19T00:30:14.195Z,96528.88
2023-05-19T00:31:19.143Z,96530.78
2023-05-19T00:32:21.312Z,96531.91
2023-05-19T00:33:26.160Z,96524.19
2023-05-19T00:34:28.347Z,96530.28
2023-05-19T00:35:33.316Z,96528.38
2023-05-19T00:36:35.759Z,96521.72
2023-05-19T00:37:40.606Z,96536.41
2023-05-19T00:38:42.754Z,96527.84
2023-05-19T00:39:47.693Z,96527.84
2023-05-19T00:40:52.583Z,96526.91
2023-05-19T00:41:57.400Z,96522.66
2023-05-19T00:42:59.655Z,96528.03
2023-05-19T00:44:04.498Z,96525.59
2023-05-19T00:45:07.913Z,96527.16
2023-05-19T00:46:23.308Z,96535.00
2023-05-19T00:47:25.774Z,96529.16
2023-05-19T00:48:30.625Z,96525.88
2023-05-19T00:49:32.766Z,96527.69
2023-05-19T00:50:37.624Z,96528.53
2023-05-19T00:51:41.104Z,96538.06
2023-05-19T00:52:45.995Z,96533.03
2023-05-19T00:53:51.242Z,96528.81
2023-05-19T00:54:56.783Z,96529.78
2023-05-19T00:56:02.652Z,96527.28
2023-05-19T00:57:07.906Z,96529.25
2023-05-19T00:58:11.554Z,96522.25
2023-05-19T00:59:16.385Z,96523.13
2023-05-19T01:00:18.910Z,96517.09
2023-05-19T01:01:27.181Z,96518.91
2023-05-19T01:02:30.465Z,96511.91
2023-05-19T01:03:36.758Z,96508.34
2023-05-19T01:04:42.115Z,96511.91
2023-05-19T01:05:47.946Z,96506.88
2023-05-19T01:06:55.274Z,96513.81
2023-05-19T01:08:00.155Z,96505.91
2023-05-19T01:09:02.574Z,96504.97
2023-05-19T01:10:08.251Z,96516.31
2023-05-19T01:11:13.083Z,96500.75
2023-05-19T01:12:18.293Z,96508.53
2023-05-19T01:13:20.649Z,96507.78
2023-05-19T01:14:25.994Z,96514.78
2023-05-19T01:15:29.341Z,96512.34
2023-05-19T01:16:39.866Z,96513.81
2023-05-19T01:17:49.908Z,96511.28
2023-05-19T01:19:04.092Z,96510.53
2023-05-19T01:20:16.441Z,96508.81
2023-05-19T01:21:51.425Z,96510.72
2023-05-19T01:23:24.356Z,96509.59
2023-05-19T01:24:59.244Z,96507.00
2023-05-19T01:26:34.209Z,96504.47
2023-05-19T01:28:06.735Z,96508.03
2023-05-19T01:29:23.874Z,96511.69
2023-05-19T01:30:37.285Z,96514.72
2023-05-19T01:31:45.393Z,96507.22
2023-05-19T01:32:49.118Z,96510.13
2023-05-19T01:33:56.728Z,96511.88
2023-05-19T01:34:59.552Z,96517.22
2023-05-19T01:36:14.584Z,96512.41
2023-05-19T01:37:17.854Z,96514.47
2023-05-19T01:38:23.904Z,96521.63
2023-05-19T01:39:26.702Z,96530.44
2023-05-19T01:40:33.237Z,96525.31
2023-05-19T01:41:35.920Z,96526.41
2023-05-19T01:42:42.053Z,96525.69
2023-05-19T01:43:44.921Z,96523.31
2023-05-19T01:44:50.459Z,96525.13
2023-05-19T01:45:59.081Z,96527.84
2023-05-19T01:47:05.230Z,96517.63
2023-05-19T01:48:11.365Z,96530.69
2023-05-19T01:49:16.673Z,96527.50
2023-05-19T01:50:19.032Z,96529.06
2023-05-19T01:51:23.944Z,96535.13
2023-05-19T01:52:26.136Z,96532.72
2023-05-19T01:53:30.975Z,96526.22
2023-05-19T01:54:33.355Z,96526.28
2023-05-19T01:55:39.550Z,96527.31
2023-05-19T01:56:50.376Z,96522.00
2023-05-19T01:58:05.586Z,96521.88
2023-05-19T01:59:21.909Z,96521.31
2023-05-19T02:00:41.030Z,96520.44
2023-05-19T02:01:52.648Z,96528.38
2023-05-19T02:03:02.959Z,96520.78
2023-05-19T02:04:18.806Z,96527.78
2023-05-19T02:05:31.253Z,96525.38
2023-05-19T02:06:42.051Z,96517.78
2023-05-19T02:07:55.137Z,96525.81
2023-05-19T02:09:02.819Z,96521.03
2023-05-19T02:10:17.865Z,96527.19
2023-05-19T02:11:24.497Z,96521.38
2023-05-19T02:12:35.385Z,96519.09
2023-05-19T02:13:44.475Z,96521.69
2023-05-19T02:14:53.458Z,96520.66
2023-05-19T02:16:01.271Z,96518.31
2023-05-19T02:17:09.051Z,96517.59
2023-05-19T02:18:12.129Z,96517.63
2023-05-19T02:19:28.590Z,96516.69
2023-05-19T02:20:31.560Z,96517.72
2023-05-19T02:21:36.726Z,96517.81
2023-05-19T02:22:39.143Z,96517.09
2023-05-19T02:23:44.697Z,96520.75
2023-05-19T02:24:48.050Z,96514.91
2023-05-19T02:25:53.127Z,96521.13
2023-05-19T02:26:55.449Z,96517.81
2023-05-19T02:28:01.251Z,96511.91
2023-05-19T02:29:03.425Z,96516.41
2023-05-19T02:30:10.131Z,96514.72
2023-05-19T02:31:12.506Z,96513.16
2023-05-19T02:32:20.535Z,96512.50
2023-05-19T02:33:24.934Z,96515.22
2023-05-19T02:34:29.667Z,96511.09
2023-05-19T02:35:32.377Z,96511.13
2023-05-19T02:36:38.131Z,96510.25
2023-05-19T02:37:40.897Z,96507.88
2023-05-19T02:38:45.784Z,96508.91
2023-05-19T02:39:48.081Z,96510.81
2023-05-19T02:40:54.653Z,96507.50
2023-05-19T02:41:56.848Z,96512.59
2023-05-19T02:43:01.985Z,96515.28
2023-05-19T02:44:05.344Z,96509.34
2023-05-19T02:45:11.774Z,96505.97
2023-05-19T02:46:14.006Z,96496.63
2023-05-19T02:47:21.572Z,96501.06
2023-05-19T02:48:23.928Z,96499.44
2023-05-19T02:49:31.017Z,96500.38
2023-05-19T02:50:33.398Z,96501.28
2023-05-19T02:51:38.404Z,96498.81
2023-05-19T02:52:40.690Z,96497.13
2023-05-19T02:53:46.950Z,96500.66
2023-05-19T02:54:49.158Z,96498.97
2023-05-19T02:55:54.437Z,96492.13
2023-05-19T02:56:56.641Z,96495.59
2023-05-19T02:58:01.567Z,96495.59
2023-05-19T02:59:03.828Z,96495.59
2023-05-19T03:00:10.411Z,96493.91
2023-05-19T03:01:12.628Z,96488.72
2023-05-19T03:02:17.775Z,96491.28
2023-05-19T03:03:22.849Z,96487.72
2023-05-19T03:04:27.968Z,96492.13
2023-05-19T03:05:30.573Z,96482.63
2023-05-19T03:06:35.489Z,96488.78
2023-05-19T03:07:37.788Z,96488.75
2023-05-19T03:08:42.648Z,96486.22
2023-05-19T03:09:45.834Z,96485.47
2023-05-19T03:10:51.320Z,96485.47
2023-05-19T03:11:54.036Z,96490.75
2023-05-19T03:12:58.872Z,96487.28
2023-05-19T03:14:01.086Z,96484.59
2023-05-19T03:15:06.257Z,96484.66
2023-05-19T03:16:08.629Z,96485.47
2023-05-19T03:17:13.470Z,96487.22
2023-05-19T03:18:16.944Z,96489.81
2023-05-19T03:19:24.666Z,96488.13
2023-05-19T03:20:27.512Z,96488.97
2023-05-19T03:21:32.439Z,96488.97
2023-05-19T03:22:35.906Z,96488.97
2023-05-19T03:23:40.812Z,96492.34
2023-05-19T03:24:43.039Z,96495.09
2023-05-19T03:25:48.109Z,96489.09
2023-05-19T03:26:51.169Z,96490.03
2023-05-19T03:27:56.108Z,96486.53
2023-05-19T03:28:58.369Z,96495.13
2023-05-19T03:30:05.711Z,96489.19
2023-05-19T03:31:08.766Z,96490.97
2023-05-19T03:32:13.736Z,96493.59
2023-05-19T03:33:16.220Z,96493.72
2023-05-19T03:34:22.672Z,96499.72
2023-05-19T03:35:27.526Z,96500.69
2023-05-19T03:36:40.103Z,96503.28
2023-05-19T03:37:42.398Z,96492.53
2023-05-19T03:38:47.254Z,96500.88
2023-05-19T03:39:50.328Z,96500.00
2023-05-19T03:40:55.558Z,96497.53
2023-05-19T03:41:57.847Z,96495.03
2023-05-19T03:43:03.373Z,96495.09
2023-05-19T03:44:06.285Z,96509.69
2023-05-19T03:45:12.153Z,96496.84
2023-05-19T03:46:14.425Z,96499.41
2023-05-19T03:47:19.359Z,96495.94
2023-05-19T03:48:21.568Z,96495.09
2023-05-19T03:49:26.557Z,96498.50
2023-05-19T03:50:32.130Z,96496.72
2023-05-19T03:51:37.155Z,96502.78
2023-05-19T03:52:40.097Z,96496.75
2023-05-19T03:53:45.923Z,96501.09
2023-05-19T03:54:48.195Z,96495.13
2023-05-19T03:55:53.272Z,96491.72
2023-05-19T03:56:56.105Z,96500.38
2023-05-19T03:58:00.980Z,96499.53
2023-05-19T03:59:03.199Z,96491.78
2023-05-19T04:00:13.380Z,96490.88
2023-05-19T04:01:15.585Z,96493.47
2023-05-19T04:02:20.489Z,96492.53
2023-05-19T04:03:22.920Z,96496.03
2023-05-19T04:04:28.627Z,96499.53
2023-05-19T04:05:33.515Z,96494.25
2023-05-19T04:06:38.354Z,96498.66
2023-05-19T04:07:40.624Z,96497.69
2023-05-19T04:08:45.928Z,96498.59
2023-05-19T04:09:48.912Z,96491.59
2023-05-19T04:10:53.870Z,96503.63
2023-05-19T04:11:56.295Z,96498.50
2023-05-19T04:13:01.221Z,96499.34
2023-05-19T04:14:03.503Z,96503.63
2023-05-19T04:15:11.577Z,96505.41
2023-05-19T04:16:14.346Z,96502.88
2023-05-19T04:17:19.182Z,96505.53
2023-05-19T04:18:21.420Z,96507.94
2023-05-19T04:19:26.251Z,96502.69
2023-05-19T04:20:28.627Z,96501.78
2023-05-19T04:21:36.204Z,96503.41
2023-05-19T04:22:38.444Z,96509.31
2023-05-19T04:23:43.632Z,96499.59
2023-05-19T04:24:47.339Z,96499.56
2023-05-19T04:25:52.701Z,96502.13
2023-05-19T04:26:54.853Z,96496.06
2023-05-19T04:28:01.257Z,96501.88
2023-05-19T04:29:04.941Z,96505.19
2023-05-19T04:30:11.235Z,96506.84
2023-05-19T04:31:14.574Z,96499.66
2023-05-19T04:32:20.481Z,96508.22
2023-05-19T04:33:22.698Z,96501.19
2023-05-19T04:34:28.940Z,96503.59
2023-05-19T04:35:34.410Z,96507.66
2023-05-19T04:36:42.747Z,96505.72
2023-05-19T04:37:46.438Z,96507.44
2023-05-19T04:38:55.025Z,96502.94
2023-05-19T04:39:57.406Z,96503.59
2023-05-19T04:41:02.436Z,96503.47
2023-05-19T04:42:04.910Z,96497.41
2023-05-19T04:43:11.697Z,96500.59
2023-05-19T04:44:14.153Z,96500.47
2023-05-19T04:45:19.115Z,96503.72
2023-05-19T04:46:24.672Z,96501.81
2023-05-19T04:47:30.391Z,96500.72
2023-05-19T04:48:33.629Z,96505.78
2023-05-19T04:49:41.378Z,96500.44
2023-05-19T04:50:43.663Z,96504.53
2023-05-19T04:51:55.518Z,96497.34
2023-05-19T04:52:59.528Z,96502.38
2023-05-19T04:54:04.482Z,96495.19
2023-05-19T04:55:07.873Z,96496.84
2023-05-19T04:56:15.550Z,96498.31
2023-05-19T04:57:20.828Z,96498.34
2023-05-19T04:58:26.097Z,96491.31
2023-05-19T04:59:31.146Z,96491.13
2023-05-19T05:00:35.997Z,96498.66
2023-05-19T05:01:41.606Z,96493.34
2023-05-19T05:02:43.890Z,96492.38
2023-05-19T05:03:48.969Z,96485.31
2023-05-19T05:04:51.208Z,96493.00
2023-05-19T05:05:57.004Z,96487.69
2023-05-19T05:07:02.198Z,96476.50
2023-05-19T05:08:07.518Z,96471.63
2023-05-19T05:09:10.735Z,96479.53
2023-05-19T05:10:15.514Z,96476.88
2023-05-19T05:11:18.381Z,96486.28
2023-05-19T05:12:25.260Z,96474.09
2023-05-19T05:13:28.200Z,96480.03
2023-05-19T05:14:33.700Z,96479.06
2023-05-19T05:15:36.581Z,96473.84
2023-05-19T05:16:42.267Z,96474.81
2023-05-19T05:17:45.408Z,96477.13
2023-05-19T05:18:50.972Z,96481.34
2023-05-19T05:19:54.478Z,96476.03
2023-05-19T05:21:00.136Z,96476.59
2023-05-19T05:22:06.474Z,96476.41
2023-05-19T05:23:14.875Z,96467.44
2023-05-19T05:24:18.009Z,96479.22
2023-05-19T05:25:24.185Z,96472.91
2023-05-19T05:26:30.983Z,96468.66
2023-05-19T05:27:36.041Z,96461.28
2023-05-19T05:28:38.504Z,96462.06
2023-05-19T05:29:46.784Z,96469.84
2023-05-19T05:30:52.055Z,96456.75
2023-05-19T05:31:57.248Z,96466.91
2023-05-19T05:33:00.019Z,96466.63
2023-05-19T05:34:05.032Z,96466.34
2023-05-19T05:35:08.335Z,96465.38
2023-05-19T05:36:14.002Z,96461.09
2023-05-19T05:37:21.371Z,96457.53
2023-05-19T05:38:26.275Z,96466.00
2023-05-19T05:39:29.060Z,96453.53
2023-05-19T05:40:33.939Z,96458.63
2023-05-19T05:41:36.349Z,96460.09
2023-05-19T05:42:41.545Z,96458.22
2023-05-19T05:43:46.636Z,96454.75
2023-05-19T05:44:48.953Z,96449.72
2023-05-19T05:45:54.807Z,96455.53
2023-05-19T05:47:00.479Z,96445.97
2023-05-19T05:48:03.382Z,96450.97
2023-05-19T05:49:08.959Z,96450.91
2023-05-19T05:50:13.144Z,96459.28
2023-05-19T05:51:18.976Z,96459.22
2023-05-19T05:52:29.829Z,96460.75
2023-05-19T05:53:40.053Z,96459.47
2023-05-19T05:54:42.966Z,96460.34
2023-05-19T05:55:49.431Z,96463.69
2023-05-19T05:56:52.301Z,96458.06
2023-05-19T05:57:57.327Z,96455.94
2023-05-19T05:58:59.530Z,96450.91
2023-05-19T06:00:06.140Z,96450.63
2023-05-19T06:01:11.890Z,96458.56
2023-05-19T06:02:16.739Z,96451.47
2023-05-19T06:03:24.715Z,96454.28
2023-05-19T06:04:29.609Z,96451.78
2023-05-19T06:05:31.810Z,96450.69
2023-05-19T06:06:38.221Z,96451.41
2023-05-19T06:07:43.945Z,96454.75
2023-05-19T06:08:48.701Z,96457.06
2023-05-19T06:09:50.960Z,96452.41
2023-05-19T06:10:55.717Z,96455.47
2023-05-19T06:11:58.761Z,96453.81
2023-05-19T06:13:03.819Z,96451.41
2023-05-19T06:14:06.035Z,96442.91
2023-05-19T06:15:11.670Z,96439.59
2023-05-19T06:16:13.860Z,96434.00
2023-05-19T06:17:18.674Z,96439.47
2023-05-19T06:18:21.006Z,96427.75
2023-05-19T06:19:25.918Z,96426.69
2023-05-19T06:20:28.189Z,96423.09
2023-05-19T06:21:33.202Z,96428.78
2023-05-19T06:22:35.396Z,96433.25
2023-05-19T06:23:42.933Z,96419.03
2023-05-19T06:24:45.015Z,96419.34
2023-05-19T06:25:49.837Z,96420.44
2023-05-19T06:26:52.109Z,96426.56
2023-05-19T06:27:57.303Z,96423.28
2023-05-19T06:28:59.541Z,96415.06
2023-05-19T06:30:04.631Z,96409.78
2023-05-19T06:31:06.966Z,96410.03
2023-05-19T06:32:11.765Z,96412.88
2023-05-19T06:33:14.009Z,96402.28
2023-05-19T06:34:18.823Z,96403.63
2023-05-19T06:35:21.210Z,96406.38
2023-05-19T06:36:26.023Z,96406.78
2023-05-19T06:37:28.305Z,96398.72
2023-05-19T06:38:33.188Z,96402.16
2023-05-19T06:39:38.296Z,96406.94
2023-05-19T06:40:44.038Z,96407.66
2023-05-19T06:41:46.191Z,96396.53
2023-05-19T06:42:50.980Z,96395.16
2023-05-19T06:43:53.166Z,96387.63
2023-05-19T06:44:59.058Z,96382.59
2023-05-19T06:46:07.572Z,96380.75
2023-05-19T06:47:10.203Z,96376.28
2023-05-19T06:48:20.678Z,96374.56
2023-05-19T06:49:29.572Z,96380.75
2023-05-19T06:50:34.903Z,96381.50
2023-05-19T06:51:37.354Z,96398.44
2023-05-19T06:52:43.005Z,96379.47
2023-05-19T06:53:45.224Z,96377.31
2023-05-19T06:54:52.753Z,96370.13
2023-05-19T06:55:59.904Z,96376.88
2023-05-19T06:57:05.254Z,96397.41
2023-05-19T06:58:10.300Z,96370.81
2023-05-19T06:59:18.305Z,96378.13
2023-05-19T07:00:30.595Z,96386.50
2023-05-19T07:01:35.975Z,96369.63
2023-05-19T07:02:42.188Z,96377.00
2023-05-19T07:03:47.949Z,96368.22
2023-05-19T07:04:53.054Z,96369.31
2023-05-19T07:05:59.706Z,96369.06
2023-05-19T07:07:02.352Z,96362.47
2023-05-19T07:08:08.731Z,96342.28
2023-05-19T07:09:11.406Z,96355.09
2023-05-19T07:10:24.022Z,96362.09
2023-05-19T07:11:29.289Z,96353.09
2023-05-19T07:12:36.524Z,96355.63
2023-05-19T07:13:40.803Z,96368.09
2023-05-19T07:14:48.915Z,96354.81
2023-05-19T07:15:59.929Z,96352.34
2023-05-19T07:17:06.480Z,96363.31
2023-05-19T07:18:13.543Z,96367.00
2023-05-19T07:19:20.208Z,96362.75
2023-05-19T07:20:26.246Z,96361.31
2023-05-19T07:21:28.977Z,96360.06
2023-05-19T07:22:35.497Z,96349.63
2023-05-19T07:23:37.782Z,96351.59
2023-05-19T07:24:43.584Z,96343.53
2023-05-19T07:25:48.875Z,96349.44
2023-05-19T07:26:59.038Z,96354.63
2023-05-19T07:28:01.695Z,96356.94
2023-05-19T07:29:07.224Z,96368.63
2023-05-19T07:30:10.470Z,96360.59
2023-05-19T07:31:18.924Z,96362.31
2023-05-19T07:32:22.398Z,96365.13
2023-05-19T07:33:29.846Z,96376.19
2023-05-19T07:34:32.447Z,96376.19
2023-05-19T07:35:38.831Z,96386.66
2023-05-19T07:36:46.321Z,96364.19
2023-05-19T07:37:53.255Z,96361.09
2023-05-19T07:38:59.610Z,96347.06
2023-05-19T07:40:05.589Z,96352.38
2023-05-19T07:41:15.308Z,96352.25
2023-05-19T07:42:17.844Z,96352.22
2023-05-19T07:43:25.089Z,96365.03
2023-05-19T07:44:28.017Z,96355.50
2023-05-19T07:45:33.320Z,96359.91
2023-05-19T07:46:39.116Z,96361.69
2023-05-19T07:47:41.694Z,96374.94
2023-05-19T07:48:47.270Z,96379.00
2023-05-19T07:49:52.898Z,96371.25
2023-05-19T07:50:55.787Z,96364.31
2023-05-19T07:52:01.550Z,96361.13
2023-05-19T07:53:04.069Z,96347.16
2023-05-19T07:54:09.678Z,96348.00
2023-05-19T07:55:12.496Z,96355.94
2023-05-19T07:56:21.540Z,96354.03
2023-05-19T07:57:27.083Z,96337.41
2023-05-19T07:58:29.623Z,96359.69
2023-05-19T07:59:35.330Z,96347.03
2023-05-19T08:00:38.459Z,96368.75
2023-05-19T08:01:44.086Z,96350.69
2023-05-19T08:02:46.640Z,96348.28
2023-05-19T08:03:51.885Z,96375.75
2023-05-19T08:04:57.397Z,96363.13
2023-05-19T08:06:01.232Z,96374.31
2023-05-19T08:07:06.760Z,96345.06
2023-05-19T08:08:09.881Z,96355.94
2023-05-19T08:09:17.199Z,96343.19
2023-05-19T08:10:19.737Z,96338.78
2023-05-19T08:11:27.838Z,96355.72
2023-05-19T08:12:36.865Z,96375.38
2023-05-19T08:13:39.650Z,96352.50
2023-05-19T08:14:45.064Z,96332.31
2023-05-19T08:15:48.034Z,96358.25
2023-05-19T08:16:55.822Z,96352.19
2023-05-19T08:17:58.544Z,96347.59
2023-05-19T08:19:05.937Z,96346.22
2023-05-19T08:20:14.194Z,96351.88
2023-05-19T08:21:19.388Z,96373.31
2023-05-19T08:22:21.973Z,96354.91
2023-05-19T08:23:27.375Z,96350.13
2023-05-19T08:24:34.119Z,96343.63
2023-05-19T08:25:39.653Z,96342.72
2023-05-19T08:26:47.026Z,96344.69
2023-05-19T08:27:52.673Z,96327.00
2023-05-19T08:28:55.128Z,96323.63
2023-05-19T08:30:05.350Z,96336.59
2023-05-19T08:31:10.256Z,96338.19
2023-05-19T08:32:15.721Z,96343.31
2023-05-19T08:33:18.413Z,96341.09
2023-05-19T08:34:23.823Z,96340.50
2023-05-19T08:35:26.599Z,96339.44
2023-05-19T08:36:31.626Z,96334.22
2023-05-19T08:37:35.743Z,96338.19
2023-05-19T08:38:40.866Z,96333.97
2023-05-19T08:39:45.966Z,96343.44
2023-05-19T08:40:53.158Z,96317.34
2023-05-19T08:41:58.836Z,96311.75
2023-05-19T08:43:03.937Z,96304.88
2023-05-19T08:44:06.631Z,96306.56
2023-05-19T08:45:12.866Z,96304.09
2023-05-19T08:46:17.130Z,96314.63
2023-05-19T08:47:23.160Z,96305.13
2023-05-19T08:48:28.215Z,96322.16
2023-05-19T08:49:33.985Z,96311.25
2023-05-19T08:50:43.806Z,96290.56
2023-05-19T08:51:59.253Z,96291.38
2023-05-19T08:53:06.079Z,96289.91
2023-05-19T08:54:18.609Z,96291.31
2023-05-19T08:55:29.499Z,96304.38
2023-05-19T08:56:35.437Z,96311.28
2023-05-19T08:57:41.278Z,96312.53
2023-05-19T08:58:48.241Z,96300.88
2023-05-19T08:59:51.603Z,96299.22
2023-05-19T09:00:59.881Z,96303.38
2023-05-19T09:02:05.621Z,96299.25
2023-05-19T09:04:22.868Z,96323.44
2023-05-19T09:05:25.614Z,96297.38
2023-05-19T09:06:35.131Z,96324.22
2023-05-19T09:07:38.650Z,96300.63
2023-05-19T09:08:45.150Z,96289.56
2023-05-19T09:09:48.327Z,96298.25
2023-05-19T09:10:53.814Z,96298.13
2023-05-19T09:12:01.251Z,96305.09
2023-05-19T09:13:06.531Z,96282.59
2023-05-19T09:14:11.773Z,96280.78
2023-05-19T09:15:17.879Z,96289.13
2023-05-19T09:16:23.209Z,96316.56
2023-05-19T09:17:25.710Z,96309.91
2023-05-19T09:18:31.099Z,96297.78
2023-05-19T09:19:36.482Z,96317.06
2023-05-19T09:20:41.982Z,96279.53
2023-05-19T09:21:47.571Z,96294.19
2023-05-19T09:22:50.919Z,96282.88
2023-05-19T09:23:56.113Z,96290.41
2023-05-19T09:25:01.796Z,96279.06
2023-05-19T09:26:09.624Z,96274.44
2023-05-19T09:27:15.770Z,96284.44
2023-05-19T09:28:30.978Z,96277.31
2023-05-19T09:29:33.560Z,96280.50
2023-05-19T09:30:39.720Z,96262.06
2023-05-19T09:31:52.324Z,96266.19
2023-05-19T09:32:54.787Z,96265.38
2023-05-19T09:34:00.177Z,96276.09
2023-05-19T09:35:06.263Z,96254.63
2023-05-19T09:36:12.456Z,96278.00
2023-05-19T09:37:14.932Z,96271.09
2023-05-19T09:38:22.052Z,96284.94
2023-05-19T09:39:29.220Z,96268.47
2023-05-19T09:40:33.080Z,96263.69
2023-05-19T09:41:40.062Z,96271.69
2023-05-19T09:42:54.337Z,96268.72
2023-05-19T09:44:03.814Z,96267.03
2023-05-19T09:45:08.491Z,96285.28
2023-05-19T09:46:16.223Z,96249.38
2023-05-19T09:47:19.072Z,96268.47
2023-05-19T09:48:24.159Z,96252.94
2023-05-19T09:49:30.949Z,96243.00
2023-05-19T09:50:39.014Z,96248.88
2023-05-19T09:51:42.135Z,96257.59
2023-05-19T09:52:47.967Z,96235.59
2023-05-19T09:53:56.053Z,96228.84
2023-05-19T09:55:03.072Z,96213.63
2023-05-19T09:56:10.440Z,96260.63
2023-05-19T09:57:13.100Z,96228.09
2023-05-19T09:58:22.010Z,96204.75
2023-05-19T09:59:32.040Z,96199.66
2023-05-19T10:00:38.678Z,96224.25
2023-05-19T10:01:45.303Z,96234.59
2023-05-19T10:02:52.817Z,96205.53
2023-05-19T10:03:56.477Z,96219.25
2023-05-19T10:05:02.280Z,96209.00
2023-05-19T10:06:09.568Z,96219.25
2023-05-19T10:07:18.082Z,96201.25
2023-05-19T10:08:24.798Z,96204.00
2023-05-19T10:09:31.765Z,96230.97
2023-05-19T10:10:37.500Z,96218.72
2023-05-19T10:11:42.796Z,96204.50
2023-05-19T10:12:52.579Z,96201.94
2023-05-19T10:13:57.096Z,96201.25
2023-05-19T10:15:06.016Z,96206.81
2023-05-19T10:16:14.123Z,96223.28
2023-05-19T10:17:19.418Z,96242.66
2023-05-19T10:18:26.243Z,96254.25
2023-05-19T10:19:36.003Z,96240.09
2023-05-19T10:20:45.754Z,96241.81
2023-05-19T10:21:48.383Z,96221.78
2023-05-19T10:22:53.993Z,96206.19
2023-05-19T10:23:59.256Z,96212.34
2023-05-19T10:25:01.778Z,96212.06
2023-05-19T10:26:09.068Z,96216.72
2023-05-19T10:27:15.452Z,96221.44
2023-05-19T10:28:26.478Z,96229.78
2023-05-19T10:29:35.546Z,96250.53
2023-05-19T10:30:46.609Z,96252.94
2023-05-19T10:31:53.097Z,96244.25
2023-05-19T10:33:03.193Z,96261.31
2023-05-19T10:34:27.067Z,96265.97
2023-05-19T10:35:54.210Z,96272.53
2023-05-19T10:37:09.589Z,96263.09
2023-05-19T10:38:25.374Z,96261.81
2023-05-19T10:39:38.706Z,96251.06
2023-05-19T10:41:01.044Z,96287.41
2023-05-19T10:42:13.161Z,96277.31
2023-05-19T10:43:30.774Z,96259.88
2023-05-19T10:44:50.693Z,96265.84
2023-05-19T10:45:57.937Z,96284.75
2023-05-19T10:47:03.066Z,96283.44
2023-05-19T10:48:05.862Z,96299.63
2023-05-19T10:49:11.756Z,96298.63
2023-05-19T10:50:17.636Z,96302.22
2023-05-19T10:51:22.667Z,96304.34
2023-05-19T10:52:30.317Z,96307.56
2023-05-19T10:53:37.426Z,96293.75
2023-05-19T10:54:41.216Z,96302.97
2023-05-19T10:55:50.563Z,96309.34
2023-05-19T10:57:00.785Z,96300.59
2023-05-19T10:58:05.747Z,96293.41
2023-05-19T10:59:10.645Z,96306.97
2023-05-19T11:00:31.556Z,96306.56
2023-05-19T11:01:41.883Z,96316.31
2023-05-19T11:02:44.431Z,96307.41
2023-05-19T11:03:52.478Z,96312.22
2023-05-19T11:04:58.859Z,96319.38
2023-05-19T11:06:36.731Z,96319.69
2023-05-19T11:07:43.094Z,96311.78
2023-05-19T11:08:48.212Z,96294.63
2023-05-19T11:09:54.719Z,96299.63
2023-05-19T11:10:57.755Z,96313.00
2023-05-19T11:12:06.687Z,96296.19
2023-05-19T11:13:23.701Z,96317.66
2023-05-19T11:14:32.071Z,96293.97
2023-05-19T11:15:41.069Z,96295.78
2023-05-19T11:16:50.823Z,96284.28
2023-05-19T11:17:54.128Z,96304.28
2023-05-19T11:19:01.755Z,96287.03
2023-05-19T11:20:13.102Z,96288.88
2023-05-19T11:21:16.385Z,96302.91
2023-05-19T11:22:22.171Z,96285.41
2023-05-19T11:23:29.599Z,96293.41
2023-05-19T11:24:37.313Z,96290.56
2023-05-19T11:25:48.715Z,96303.81
2023-05-19T11:26:57.737Z,96284.06
2023-05-19T11:28:03.425Z,96294.13
2023-05-19T11:29:06.453Z,96282.75
2023-05-19T11:30:15.320Z,96271.13
2023-05-19T11:31:23.268Z,96295.41
2023-05-19T11:32:30.871Z,96292.72
2023-05-19T11:33:36.102Z,96282.84
2023-05-19T11:34:38.810Z,96281.56
2023-05-19T11:35:43.988Z,96287.66
2023-05-19T11:36:49.376Z,96275.53
2023-05-19T11:37:54.803Z,96288.72
2023-05-19T11:39:01.642Z,96296.63
2023-05-19T11:40:08.390Z,96292.19
2023-05-19T11:41:13.279Z,96295.22
2023-05-19T11:42:16.670Z,96298.25
2023-05-19T11:43:21.568Z,96276.91
2023-05-19T11:44:23.807Z,96271.81
2023-05-19T11:45:29.212Z,96272.88
2023-05-19T11:46:34.940Z,96255.47
2023-05-19T11:48:00.813Z,96268.94
2023-05-19T11:49:08.253Z,96262.00
2023-05-19T11:50:14.523Z,96269.97
2023-05-19T11:51:20.449Z,96260.44
2023-05-19T11:52:23.675Z,96263.97
2023-05-19T11:53:33.406Z,96283.53
2023-05-19T11:54:40.330Z,96304.09
2023-05-19T11:55:43.912Z,96311.72
2023-05-19T11:56:49.218Z,96305.16
2023-05-19T11:58:03.858Z,96289.91
2023-05-19T11:59:10.374Z,96295.97
2023-05-19T12:00:14.992Z,96294.63
2023-05-19T12:01:19.848Z,96299.88
2023-05-19T12:02:25.144Z,96289.88
2023-05-19T12:03:33.251Z,96308.25
2023-05-19T12:04:38.819Z,96292.06
2023-05-19T12:05:44.916Z,96322.25
2023-05-19T12:06:52.544Z,96314.53
2023-05-19T12:07:54.891Z,96314.91
2023-05-19T12:09:00.365Z,96329.91
2023-05-19T12:10:03.614Z,96323.78
2023-05-19T12:11:09.417Z,96328.56
2023-05-19T12:12:14.601Z,96328.03
2023-05-19T12:13:19.772Z,96330.34
2023-05-19T12:14:24.867Z,96340.69
2023-05-19T12:15:27.339Z,96318.66
2023-05-19T12:16:38.789Z,96310.72
2023-05-19T12:17:41.364Z,96309.53
2023-05-19T12:18:48.782Z,96314.06
2023-05-19T12:19:51.530Z,96314.88
2023-05-19T12:20:56.537Z,96299.94
2023-05-19T12:21:58.726Z,96282.47
2023-05-19T12:23:04.317Z,96286.38
2023-05-19T12:24:10.213Z,96312.56
2023-05-19T12:25:12.709Z,96304.69
2023-05-19T12:26:18.147Z,96276.38
2023-05-19T12:27:23.533Z,96285.44
2023-05-19T12:28:28.415Z,96288.66
2023-05-19T12:29:32.227Z,96307.78
2023-05-19T12:30:37.403Z,96283.25
2023-05-19T12:31:40.282Z,96268.22
2023-05-19T12:32:46.991Z,96265.84
2023-05-19T12:33:54.708Z,96260.84
2023-05-19T12:34:57.453Z,96264.19
2023-05-19T12:36:02.814Z,96259.88
2023-05-19T12:37:05.937Z,96263.91
2023-05-19T12:38:10.750Z,96254.13
2023-05-19T12:39:13.287Z,96265.69
2023-05-19T12:40:19.495Z,96253.88
2023-05-19T12:41:24.321Z,96256.28
2023-05-19T12:42:31.552Z,96241.84
2023-05-19T12:43:37.404Z,96253.88
2023-05-19T12:44:44.220Z,96262.19
2023-05-19T12:45:49.086Z,96242.88
2023-05-19T12:46:52.756Z,96237.97
2023-05-19T12:47:59.524Z,96242.03
2023-05-19T12:49:04.628Z,96269.72
2023-05-19T12:50:11.352Z,96245.69
2023-05-19T12:51:19.774Z,96250.63
2023-05-19T12:52:23.464Z,96223.28
2023-05-19T12:53:30.347Z,96219.72
2023-05-19T12:54:34.267Z,96221.22
2023-05-19T12:55:42.459Z,96227.69